Terminal Aerodrome Forecast
Issued by NWS Duluth, MN

Home | Current Version | Previous Version | Text Only | Print | Product List | Glossary On
Versions: 1 2 3 4 5 6 7 8 9 10 11 12 13 14 15 16 17 18 19 20 21
000
FTUS43 KDLH 200533
TAFDLH
TAF
KDLH 200533Z 2006/2106 12013KT P6SM VCSH SCT060 OVC130
      WS015/17050KT
     FM200800 12012KT 5SM TSRA BKN025CB OVC050CB WS015/17050KT
     FM201000 13011KT 2SM SHRA BR VCTS OVC007CB WS015/18050KT
     FM201200 15009KT 3SM BR OVC005
     FM201600 20009KT P6SM BKN010
     FM201800 28013KT P6SM SCT050
     FM210100 25004KT P6SM SKC=

USA.gov is the U.S. government's official web portal to all federal, state and local government web resources and services.